CheckWX is a tool to help pilots better visualize weather data.  It is not intended as a substitute for an official pre-flight weather briefing.

08:53:40 UTC

CYVP METAR
Kuujjuaq Airport
Kuujjuaq, Canada
Current

54 mins ago

CYVP 220800Z 17005KT 15SM SCT043 OVC081 04/01 A3015 RMK SC3AS5 SLP213
Observed
May-22 @ 08:00 UTC
Wind
  • 170° at 5 KTS
Visibility
15 SM
Flight Rules
VFR
Cloud Levels
  • Scattered at 4,300' AGL
  • Overcast at 8,100' AGL
Temperature
C / 39°F
Dewpoint
C / 34°F
Humidity
81%
Altimeter
30.15" Hg
Pressure
1021.02 hPa
Previous

2 hours ago

CYVP 220700Z 18005KT 15SM SCT043 OVC081 05/01 A3015 RMK SC4AC4 SLP212
Observed
May-22 @ 07:00 UTC
Wind
  • 180° at 5 KTS
Visibility
15 SM
Flight Rules
VFR
Cloud Levels
  • Scattered at 4,300' AGL
  • Overcast at 8,100' AGL
Temperature
C / 41°F
Dewpoint
C / 34°F
Humidity
76%
Altimeter
30.15" Hg
Pressure
1021.02 hPa
Previous

3 hours ago

CYVP 220600Z 16004KT 15SM BKN048 OVC085 05/01 A3014 RMK SC6AC2 SLP209
Observed
May-22 @ 06:00 UTC
Wind
  • 160° at 4 KTS
Visibility
15 SM
Flight Rules
VFR
Cloud Levels
  • Broken at 4,800' AGL
  • Overcast at 8,500' AGL
Temperature
C / 41°F
Dewpoint
C / 34°F
Humidity
76%
Altimeter
30.14" Hg
Pressure
1020.62 hPa